sensor_id;sensor_type;location;lat;lon;timestamp;temperature;humidity
19552;DHT22;9921;47.186;9.778;2023-04-29T00:01:19;13.10;99.90
19552;DHT22;9921;47.186;9.778;2023-04-29T00:03:46;13.00;99.90
19552;DHT22;9921;47.186;9.778;2023-04-29T00:06:14;12.90;99.90
19552;DHT22;9921;47.186;9.778;2023-04-29T00:08:41;12.80;99.90
19552;DHT22;9921;47.186;9.778;2023-04-29T00:11:08;12.70;99.90
19552;DHT22;9921;47.186;9.778;2023-04-29T00:13:35;12.60;99.90
19552;DHT22;9921;47.186;9.778;2023-04-29T00:16:05;12.50;99.90
19552;DHT22;9921;47.186;9.778;2023-04-29T00:18:33;12.50;99.90
19552;DHT22;9921;47.186;9.778;2023-04-29T00:21:01;12.40;99.90
19552;DHT22;9921;47.186;9.778;2023-04-29T00:23:30;12.40;99.90
19552;DHT22;9921;47.186;9.778;2023-04-29T00:25:57;12.40;99.90
19552;DHT22;9921;47.186;9.778;2023-04-29T00:28:24;12.40;99.90
19552;DHT22;9921;47.186;9.778;2023-04-29T00:30:51;12.40;99.90
19552;DHT22;9921;47.186;9.778;2023-04-29T00:33:19;12.40;99.90
19552;DHT22;9921;47.186;9.778;2023-04-29T00:35:46;12.40;99.90
19552;DHT22;9921;47.186;9.778;2023-04-29T00:38:13;12.40;99.90
19552;DHT22;9921;47.186;9.778;2023-04-29T00:40:40;12.50;99.90
19552;DHT22;9921;47.186;9.778;2023-04-29T00:43:08;12.50;99.90
19552;DHT22;9921;47.186;9.778;2023-04-29T00:45:34;12.50;99.90
19552;DHT22;9921;47.186;9.778;2023-04-29T00:48:01;12.50;99.90
19552;DHT22;9921;47.186;9.778;2023-04-29T00:50:30;12.50;99.90
19552;DHT22;9921;47.186;9.778;2023-04-29T00:52:57;12.50;99.90
19552;DHT22;9921;47.186;9.778;2023-04-29T00:55:24;12.50;99.90
19552;DHT22;9921;47.186;9.778;2023-04-29T00:57:52;12.40;99.90
19552;DHT22;9921;47.186;9.778;2023-04-29T01:00:19;12.40;99.90
19552;DHT22;9921;47.186;9.778;2023-04-29T01:02:46;12.40;99.90
19552;DHT22;9921;47.186;9.778;2023-04-29T01:05:13;12.40;99.90
19552;DHT22;9921;47.186;9.778;2023-04-29T01:07:48;12.40;99.90
19552;DHT22;9921;47.186;9.778;2023-04-29T01:10:22;12.30;99.90
19552;DHT22;9921;47.186;9.778;2023-04-29T01:12:57;12.40;99.90
19552;DHT22;9921;47.186;9.778;2023-04-29T01:15:31;12.40;99.90
19552;DHT22;9921;47.186;9.778;2023-04-29T01:18:03;12.50;99.90
19552;DHT22;9921;47.186;9.778;2023-04-29T01:20:31;12.50;99.90
19552;DHT22;9921;47.186;9.778;2023-04-29T01:22:59;12.60;99.90
19552;DHT22;9921;47.186;9.778;2023-04-29T01:25:28;12.70;99.90
19552;DHT22;9921;47.186;9.778;2023-04-29T01:28:03;12.70;99.90
19552;DHT22;9921;47.186;9.778;2023-04-29T01:30:41;12.60;99.90
19552;DHT22;9921;47.186;9.778;2023-04-29T01:33:15;12.60;99.90
19552;DHT22;9921;47.186;9.778;2023-04-29T01:35:56;12.60;99.90
19552;DHT22;9921;47.186;9.778;2023-04-29T01:38:31;12.60;99.90
19552;DHT22;9921;47.186;9.778;2023-04-29T01:41:09;12.70;99.90
19552;DHT22;9921;47.186;9.778;2023-04-29T01:43:36;12.70;99.90
19552;DHT22;9921;47.186;9.778;2023-04-29T01:46:05;12.70;99.90
19552;DHT22;9921;47.186;9.778;2023-04-29T01:48:32;12.80;99.90
19552;DHT22;9921;47.186;9.778;2023-04-29T01:50:59;12.80;99.90
19552;DHT22;9921;47.186;9.778;2023-04-29T01:53:26;12.90;99.90
19552;DHT22;9921;47.186;9.778;2023-04-29T01:55:53;12.90;99.90
19552;DHT22;9921;47.186;9.778;2023-04-29T01:58:21;12.90;99.90
19552;DHT22;9921;47.186;9.778;2023-04-29T02:00:48;12.90;99.90
19552;DHT22;9921;47.186;9.778;2023-04-29T02:03:15;12.90;99.90
19552;DHT22;9921;47.186;9.778;2023-04-29T02:05:42;12.90;99.90
19552;DHT22;9921;47.186;9.778;2023-04-29T02:08:08;12.90;99.90
19552;DHT22;9921;47.186;9.778;2023-04-29T02:10:36;12.80;99.90
19552;DHT22;9921;47.186;9.778;2023-04-29T02:13:02;12.60;99.90
19552;DHT22;9921;47.186;9.778;2023-04-29T02:15:31;12.50;99.90
19552;DHT22;9921;47.186;9.778;2023-04-29T02:17:57;12.40;99.90
19552;DHT22;9921;47.186;9.778;2023-04-29T02:20:24;12.50;99.90
19552;DHT22;9921;47.186;9.778;2023-04-29T02:22:51;12.50;99.90
19552;DHT22;9921;47.186;9.778;2023-04-29T02:25:18;12.50;99.90
19552;DHT22;9921;47.186;9.778;2023-04-29T02:27:45;12.50;99.90
19552;DHT22;9921;47.186;9.778;2023-04-29T02:30:12;12.40;99.90
19552;DHT22;9921;47.186;9.778;2023-04-29T02:32:40;12.30;99.90
19552;DHT22;9921;47.186;9.778;2023-04-29T02:35:07;12.20;99.90
19552;DHT22;9921;47.186;9.778;2023-04-29T02:37:34;12.20;99.90
19552;DHT22;9921;47.186;9.778;2023-04-29T02:40:01;12.20;99.90
19552;DHT22;9921;47.186;9.778;2023-04-29T02:42:29;12.30;99.90
19552;DHT22;9921;47.186;9.778;2023-04-29T02:44:56;12.30;99.90
19552;DHT22;9921;47.186;9.778;2023-04-29T02:47:23;12.30;99.90
19552;DHT22;9921;47.186;9.778;2023-04-29T02:49:51;12.30;99.90
19552;DHT22;9921;47.186;9.778;2023-04-29T02:52:18;12.40;99.90
19552;DHT22;9921;47.186;9.778;2023-04-29T02:54:45;12.40;99.90
19552;DHT22;9921;47.186;9.778;2023-04-29T02:57:11;12.50;99.90
19552;DHT22;9921;47.186;9.778;2023-04-29T02:59:38;12.50;99.90
19552;DHT22;9921;47.186;9.778;2023-04-29T03:02:05;12.50;99.90
19552;DHT22;9921;47.186;9.778;2023-04-29T03:04:32;12.50;99.90
19552;DHT22;9921;47.186;9.778;2023-04-29T03:07:00;12.50;99.90
19552;DHT22;9921;47.186;9.778;2023-04-29T03:09:27;12.50;99.90
19552;DHT22;9921;47.186;9.778;2023-04-29T03:11:55;12.40;99.90
19552;DHT22;9921;47.186;9.778;2023-04-29T03:14:22;12.40;99.90
19552;DHT22;9921;47.186;9.778;2023-04-29T03:16:48;12.30;99.90
19552;DHT22;9921;47.186;9.778;2023-04-29T03:19:15;12.20;99.90
19552;DHT22;9921;47.186;9.778;2023-04-29T03:21:42;12.20;99.90
19552;DHT22;9921;47.186;9.778;2023-04-29T03:24:11;12.20;99.90
19552;DHT22;9921;47.186;9.778;2023-04-29T03:26:37;12.20;99.90
19552;DHT22;9921;47.186;9.778;2023-04-29T03:29:04;12.20;99.90
19552;DHT22;9921;47.186;9.778;2023-04-29T03:31:31;12.20;99.90
19552;DHT22;9921;47.186;9.778;2023-04-29T03:33:58;12.20;99.90
19552;DHT22;9921;47.186;9.778;2023-04-29T03:36:25;12.30;99.90
19552;DHT22;9921;47.186;9.778;2023-04-29T03:38:52;12.30;99.90
19552;DHT22;9921;47.186;9.778;2023-04-29T03:41:20;12.30;99.90
19552;DHT22;9921;47.186;9.778;2023-04-29T03:43:48;12.30;99.90
19552;DHT22;9921;47.186;9.778;2023-04-29T03:46:15;12.30;99.90
19552;DHT22;9921;47.186;9.778;2023-04-29T03:48:42;12.30;99.90
19552;DHT22;9921;47.186;9.778;2023-04-29T03:51:09;12.40;99.90
19552;DHT22;9921;47.186;9.778;2023-04-29T03:53:37;12.40;99.90
19552;DHT22;9921;47.186;9.778;2023-04-29T03:56:05;12.50;99.90
19552;DHT22;9921;47.186;9.778;2023-04-29T03:58:34;12.50;99.90
19552;DHT22;9921;47.186;9.778;2023-04-29T04:01:01;12.60;99.90
19552;DHT22;9921;47.186;9.778;2023-04-29T04:03:28;12.50;99.90
19552;DHT22;9921;47.186;9.778;2023-04-29T04:05:55;12.50;99.90
19552;DHT22;9921;47.186;9.778;2023-04-29T04:08:22;12.40;99.90
19552;DHT22;9921;47.186;9.778;2023-04-29T04:10:48;12.40;99.90
19552;DHT22;9921;47.186;9.778;2023-04-29T04:13:15;12.40;99.90
19552;DHT22;9921;47.186;9.778;2023-04-29T04:15:48;12.40;99.90
19552;DHT22;9921;47.186;9.778;2023-04-29T04:18:15;12.30;99.90
19552;DHT22;9921;47.186;9.778;2023-04-29T04:20:42;12.30;99.90
19552;DHT22;9921;47.186;9.778;2023-04-29T04:23:09;12.30;99.90
19552;DHT22;9921;47.186;9.778;2023-04-29T04:25:35;12.30;99.90
19552;DHT22;9921;47.186;9.778;2023-04-29T04:28:03;12.20;99.90
19552;DHT22;9921;47.186;9.778;2023-04-29T04:30:30;12.30;99.90
19552;DHT22;9921;47.186;9.778;2023-04-29T04:32:58;12.20;99.90
19552;DHT22;9921;47.186;9.778;2023-04-29T04:35:26;12.20;99.90
19552;DHT22;9921;47.186;9.778;2023-04-29T04:37:52;12.20;99.90
19552;DHT22;9921;47.186;9.778;2023-04-29T04:40:19;12.20;99.90
19552;DHT22;9921;47.186;9.778;2023-04-29T04:42:47;12.20;99.90
19552;DHT22;9921;47.186;9.778;2023-04-29T04:45:14;12.20;99.90
19552;DHT22;9921;47.186;9.778;2023-04-29T04:47:41;12.20;99.90
19552;DHT22;9921;47.186;9.778;2023-04-29T04:50:09;12.20;99.90
19552;DHT22;9921;47.186;9.778;2023-04-29T04:52:36;12.20;99.90
19552;DHT22;9921;47.186;9.778;2023-04-29T04:55:03;12.20;99.90
19552;DHT22;9921;47.186;9.778;2023-04-29T04:57:30;12.30;99.90
19552;DHT22;9921;47.186;9.778;2023-04-29T04:59:57;12.30;99.90
19552;DHT22;9921;47.186;9.778;2023-04-29T05:02:24;12.40;99.90
19552;DHT22;9921;47.186;9.778;2023-04-29T05:04:51;12.40;99.90
19552;DHT22;9921;47.186;9.778;2023-04-29T05:07:19;12.40;99.90
19552;DHT22;9921;47.186;9.778;2023-04-29T05:09:46;12.30;99.90
19552;DHT22;9921;47.186;9.778;2023-04-29T05:12:12;12.30;99.90
19552;DHT22;9921;47.186;9.778;2023-04-29T05:14:40;12.30;99.90
19552;DHT22;9921;47.186;9.778;2023-04-29T05:17:07;12.30;99.90
19552;DHT22;9921;47.186;9.778;2023-04-29T05:19:34;12.30;99.90
19552;DHT22;9921;47.186;9.778;2023-04-29T05:22:01;12.30;99.90
19552;DHT22;9921;47.186;9.778;2023-04-29T05:24:29;12.20;99.90
19552;DHT22;9921;47.186;9.778;2023-04-29T05:26:57;12.40;99.90
19552;DHT22;9921;47.186;9.778;2023-04-29T05:29:24;12.40;99.90
19552;DHT22;9921;47.186;9.778;2023-04-29T05:31:51;12.40;99.90
19552;DHT22;9921;47.186;9.778;2023-04-29T05:34:18;12.40;99.90
19552;DHT22;9921;47.186;9.778;2023-04-29T05:36:45;12.50;99.90
19552;DHT22;9921;47.186;9.778;2023-04-29T05:39:12;12.60;99.90
19552;DHT22;9921;47.186;9.778;2023-04-29T05:41:40;12.80;99.90
19552;DHT22;9921;47.186;9.778;2023-04-29T05:44:07;12.90;99.90
19552;DHT22;9921;47.186;9.778;2023-04-29T05:46:34;13.00;99.90
19552;DHT22;9921;47.186;9.778;2023-04-29T05:49:01;13.00;99.90
19552;DHT22;9921;47.186;9.778;2023-04-29T05:51:28;13.00;99.90
19552;DHT22;9921;47.186;9.778;2023-04-29T05:53:56;13.00;99.90
19552;DHT22;9921;47.186;9.778;2023-04-29T05:56:24;13.00;99.90
19552;DHT22;9921;47.186;9.778;2023-04-29T05:58:52;13.00;99.90
19552;DHT22;9921;47.186;9.778;2023-04-29T06:01:19;13.00;99.90
19552;DHT22;9921;47.186;9.778;2023-04-29T06:03:46;13.00;99.90
19552;DHT22;9921;47.186;9.778;2023-04-29T06:06:13;13.10;99.90
19552;DHT22;9921;47.186;9.778;2023-04-29T06:08:40;13.00;99.90
19552;DHT22;9921;47.186;9.778;2023-04-29T06:11:06;13.00;99.90
19552;DHT22;9921;47.186;9.778;2023-04-29T06:13:33;13.00;99.90
19552;DHT22;9921;47.186;9.778;2023-04-29T06:16:02;13.10;99.90
19552;DHT22;9921;47.186;9.778;2023-04-29T06:18:29;13.10;99.90
19552;DHT22;9921;47.186;9.778;2023-04-29T06:20:55;13.20;99.90
19552;DHT22;9921;47.186;9.778;2023-04-29T06:23:22;13.30;99.90
19552;DHT22;9921;47.186;9.778;2023-04-29T06:25:50;13.30;99.90
19552;DHT22;9921;47.186;9.778;2023-04-29T06:28:17;13.40;99.90
19552;DHT22;9921;47.186;9.778;2023-04-29T06:30:44;13.50;99.90
19552;DHT22;9921;47.186;9.778;2023-04-29T06:33:12;13.60;99.90
19552;DHT22;9921;47.186;9.778;2023-04-29T06:35:39;13.70;99.90
19552;DHT22;9921;47.186;9.778;2023-04-29T06:38:07;13.90;99.90
19552;DHT22;9921;47.186;9.778;2023-04-29T06:40:34;14.00;99.90
19552;DHT22;9921;47.186;9.778;2023-04-29T06:43:00;14.10;99.90
19552;DHT22;9921;47.186;9.778;2023-04-29T06:45:29;14.20;99.90
19552;DHT22;9921;47.186;9.778;2023-04-29T06:47:56;14.30;99.90
19552;DHT22;9921;47.186;9.778;2023-04-29T06:50:24;14.20;99.90
19552;DHT22;9921;47.186;9.778;2023-04-29T06:52:51;14.10;99.90
19552;DHT22;9921;47.186;9.778;2023-04-29T06:55:18;14.20;99.90
19552;DHT22;9921;47.186;9.778;2023-04-29T06:57:45;14.20;99.90
19552;DHT22;9921;47.186;9.778;2023-04-29T07:00:13;14.30;99.90
19552;DHT22;9921;47.186;9.778;2023-04-29T07:02:40;14.30;99.90
19552;DHT22;9921;47.186;9.778;2023-04-29T07:05:08;14.30;99.90
19552;DHT22;9921;47.186;9.778;2023-04-29T07:07:36;14.40;99.90
19552;DHT22;9921;47.186;9.778;2023-04-29T07:10:04;14.40;99.90
19552;DHT22;9921;47.186;9.778;2023-04-29T07:12:31;14.50;99.90
19552;DHT22;9921;47.186;9.778;2023-04-29T07:14:58;14.50;99.90
19552;DHT22;9921;47.186;9.778;2023-04-29T07:17:28;14.60;99.90
19552;DHT22;9921;47.186;9.778;2023-04-29T07:19:56;14.70;99.90
19552;DHT22;9921;47.186;9.778;2023-04-29T07:22:22;14.70;99.90
19552;DHT22;9921;47.186;9.778;2023-04-29T07:24:53;14.70;99.90
19552;DHT22;9921;47.186;9.778;2023-04-29T07:27:21;14.80;99.90
19552;DHT22;9921;47.186;9.778;2023-04-29T07:29:48;14.90;99.90
19552;DHT22;9921;47.186;9.778;2023-04-29T07:32:15;14.90;99.90
19552;DHT22;9921;47.186;9.778;2023-04-29T07:34:42;15.00;99.90
19552;DHT22;9921;47.186;9.778;2023-04-29T07:37:09;15.10;99.90
19552;DHT22;9921;47.186;9.778;2023-04-29T07:39:36;15.20;99.90
19552;DHT22;9921;47.186;9.778;2023-04-29T07:42:04;15.40;99.90
19552;DHT22;9921;47.186;9.778;2023-04-29T07:44:31;15.40;99.90
19552;DHT22;9921;47.186;9.778;2023-04-29T07:46:58;15.50;99.90
19552;DHT22;9921;47.186;9.778;2023-04-29T07:49:25;15.60;99.90
19552;DHT22;9921;47.186;9.778;2023-04-29T07:51:52;15.60;99.90
19552;DHT22;9921;47.186;9.778;2023-04-29T07:54:18;15.70;99.90
19552;DHT22;9921;47.186;9.778;2023-04-29T07:56:46;15.80;99.90
19552;DHT22;9921;47.186;9.778;2023-04-29T07:59:15;15.90;99.90
19552;DHT22;9921;47.186;9.778;2023-04-29T08:01:42;16.00;99.90
19552;DHT22;9921;47.186;9.778;2023-04-29T08:04:09;16.10;99.90
19552;DHT22;9921;47.186;9.778;2023-04-29T08:06:35;16.30;99.90
19552;DHT22;9921;47.186;9.778;2023-04-29T08:09:02;16.40;99.90
19552;DHT22;9921;47.186;9.778;2023-04-29T08:11:29;16.50;99.90
19552;DHT22;9921;47.186;9.778;2023-04-29T08:13:56;16.60;99.90
19552;DHT22;9921;47.186;9.778;2023-04-29T08:16:25;16.70;99.90
19552;DHT22;9921;47.186;9.778;2023-04-29T08:18:52;16.80;99.90
19552;DHT22;9921;47.186;9.778;2023-04-29T08:21:20;16.90;99.90
19552;DHT22;9921;47.186;9.778;2023-04-29T08:23:47;17.10;99.90
19552;DHT22;9921;47.186;9.778;2023-04-29T08:26:14;17.20;99.90
19552;DHT22;9921;47.186;9.778;2023-04-29T08:28:41;17.40;99.90
19552;DHT22;9921;47.186;9.778;2023-04-29T08:31:15;17.50;99.90
19552;DHT22;9921;47.186;9.778;2023-04-29T08:33:44;17.80;99.90
19552;DHT22;9921;47.186;9.778;2023-04-29T08:36:11;18.00;99.90
19552;DHT22;9921;47.186;9.778;2023-04-29T08:38:38;18.30;99.90
19552;DHT22;9921;47.186;9.778;2023-04-29T08:41:07;18.70;99.90
19552;DHT22;9921;47.186;9.778;2023-04-29T08:43:34;19.00;99.90
19552;DHT22;9921;47.186;9.778;2023-04-29T08:46:02;19.60;99.90
19552;DHT22;9921;47.186;9.778;2023-04-29T08:48:29;20.70;99.90
19552;DHT22;9921;47.186;9.778;2023-04-29T08:50:58;22.30;99.90
19552;DHT22;9921;47.186;9.778;2023-04-29T08:53:27;23.90;99.90
19552;DHT22;9921;47.186;9.778;2023-04-29T08:55:54;25.90;99.90
19552;DHT22;9921;47.186;9.778;2023-04-29T08:58:24;27.40;99.90
19552;DHT22;9921;47.186;9.778;2023-04-29T09:00:53;28.90;99.90
19552;DHT22;9921;47.186;9.778;2023-04-29T09:03:23;30.10;99.90
19552;DHT22;9921;47.186;9.778;2023-04-29T09:05:53;31.10;99.90
19552;DHT22;9921;47.186;9.778;2023-04-29T09:08:23;31.80;99.90
19552;DHT22;9921;47.186;9.778;2023-04-29T09:10:50;32.90;99.90
19552;DHT22;9921;47.186;9.778;2023-04-29T09:13:24;33.40;97.70
19552;DHT22;9921;47.186;9.778;2023-04-29T09:15:51;34.10;94.20
19552;DHT22;9921;47.186;9.778;2023-04-29T09:18:40;34.70;91.60
19552;DHT22;9921;47.186;9.778;2023-04-29T09:21:16;35.40;90.00
19552;DHT22;9921;47.186;9.778;2023-04-29T09:23:45;36.00;84.00
19552;DHT22;9921;47.186;9.778;2023-04-29T09:26:12;36.20;80.10
19552;DHT22;9921;47.186;9.778;2023-04-29T09:28:39;36.80;77.80
19552;DHT22;9921;47.186;9.778;2023-04-29T09:31:08;37.60;74.80
19552;DHT22;9921;47.186;9.778;2023-04-29T09:33:54;38.10;70.80
19552;DHT22;9921;47.186;9.778;2023-04-29T09:36:42;38.40;70.00
19552;DHT22;9921;47.186;9.778;2023-04-29T09:39:13;38.60;67.00
19552;DHT22;9921;47.186;9.778;2023-04-29T09:41:42;39.10;65.60
19552;DHT22;9921;47.186;9.778;2023-04-29T09:44:24;39.60;62.70
19552;DHT22;9921;47.186;9.778;2023-04-29T09:46:54;39.80;59.20
19552;DHT22;9921;47.186;9.778;2023-04-29T09:49:23;39.90;59.70
19552;DHT22;9921;47.186;9.778;2023-04-29T09:51:55;40.00;56.50
19552;DHT22;9921;47.186;9.778;2023-04-29T09:54:24;40.20;56.40
19552;DHT22;9921;47.186;9.778;2023-04-29T09:56:54;40.50;55.70
19552;DHT22;9921;47.186;9.778;2023-04-29T09:59:21;40.80;55.00
19552;DHT22;9921;47.186;9.778;2023-04-29T10:01:49;40.60;54.30
19552;DHT22;9921;47.186;9.778;2023-04-29T10:04:18;39.80;54.30
19552;DHT22;9921;47.186;9.778;2023-04-29T10:06:48;39.70;54.60
19552;DHT22;9921;47.186;9.778;2023-04-29T10:09:16;39.80;54.40
19552;DHT22;9921;47.186;9.778;2023-04-29T10:11:46;40.50;53.30
19552;DHT22;9921;47.186;9.778;2023-04-29T10:14:15;39.90;52.80
19552;DHT22;9921;47.186;9.778;2023-04-29T10:16:46;40.30;51.80
19552;DHT22;9921;47.186;9.778;2023-04-29T10:19:18;40.10;51.60
19552;DHT22;9921;47.186;9.778;2023-04-29T10:21:48;39.80;52.90
19552;DHT22;9921;47.186;9.778;2023-04-29T10:24:17;40.10;52.90
19552;DHT22;9921;47.186;9.778;2023-04-29T10:26:46;40.80;52.20
19552;DHT22;9921;47.186;9.778;2023-04-29T10:29:14;41.10;52.80
19552;DHT22;9921;47.186;9.778;2023-04-29T10:31:43;41.80;49.70
19552;DHT22;9921;47.186;9.778;2023-04-29T10:34:11;41.70;49.00
19552;DHT22;9921;47.186;9.778;2023-04-29T10:36:39;40.50;49.30
19552;DHT22;9921;47.186;9.778;2023-04-29T10:39:11;39.00;51.20
19552;DHT22;9921;47.186;9.778;2023-04-29T10:41:42;37.10;52.70
19552;DHT22;9921;47.186;9.778;2023-04-29T10:44:12;35.30;54.90
19552;DHT22;9921;47.186;9.778;2023-04-29T10:46:39;33.90;57.00
19552;DHT22;9921;47.186;9.778;2023-04-29T10:49:06;33.00;57.20
19552;DHT22;9921;47.186;9.778;2023-04-29T10:51:34;33.30;59.30
19552;DHT22;9921;47.186;9.778;2023-04-29T10:54:09;34.60;56.80
19552;DHT22;9921;47.186;9.778;2023-04-29T10:56:40;36.20;57.80
19552;DHT22;9921;47.186;9.778;2023-04-29T10:59:13;37.10;54.00
19552;DHT22;9921;47.186;9.778;2023-04-29T11:01:48;37.80;51.80
19552;DHT22;9921;47.186;9.778;2023-04-29T11:04:16;37.80;50.50
19552;DHT22;9921;47.186;9.778;2023-04-29T11:06:45;38.00;51.70
19552;DHT22;9921;47.186;9.778;2023-04-29T11:09:15;38.00;52.00
19552;DHT22;9921;47.186;9.778;2023-04-29T11:11:55;38.20;52.50
19552;DHT22;9921;47.186;9.778;2023-04-29T11:14:25;38.40;51.70
19552;DHT22;9921;47.186;9.778;2023-04-29T11:16:54;38.20;52.80
19552;DHT22;9921;47.186;9.778;2023-04-29T11:19:24;38.10;50.30
19552;DHT22;9921;47.186;9.778;2023-04-29T11:22:26;37.30;52.50
19552;DHT22;9921;47.186;9.778;2023-04-29T11:24:55;36.00;51.20
19552;DHT22;9921;47.186;9.778;2023-04-29T11:27:26;35.60;51.90
19552;DHT22;9921;47.186;9.778;2023-04-29T11:29:55;35.80;53.20
19552;DHT22;9921;47.186;9.778;2023-04-29T11:32:24;35.70;52.70
19552;DHT22;9921;47.186;9.778;2023-04-29T11:34:51;35.80;52.40
19552;DHT22;9921;47.186;9.778;2023-04-29T11:37:20;36.00;52.50
19552;DHT22;9921;47.186;9.778;2023-04-29T11:39:47;36.60;50.00
19552;DHT22;9921;47.186;9.778;2023-04-29T11:42:19;37.00;51.10
19552;DHT22;9921;47.186;9.778;2023-04-29T11:44:46;36.10;50.30
19552;DHT22;9921;47.186;9.778;2023-04-29T11:47:14;34.90;54.10
19552;DHT22;9921;47.186;9.778;2023-04-29T11:49:41;34.70;54.90
19552;DHT22;9921;47.186;9.778;2023-04-29T11:52:08;35.40;53.20
19552;DHT22;9921;47.186;9.778;2023-04-29T11:54:36;36.20;54.60
19552;DHT22;9921;47.186;9.778;2023-04-29T11:57:03;37.50;52.70
19552;DHT22;9921;47.186;9.778;2023-04-29T11:59:30;38.10;52.00
19552;DHT22;9921;47.186;9.778;2023-04-29T12:01:58;38.80;51.40
19552;DHT22;9921;47.186;9.778;2023-04-29T12:04:27;39.40;49.40
19552;DHT22;9921;47.186;9.778;2023-04-29T12:06:56;39.80;48.30
19552;DHT22;9921;47.186;9.778;2023-04-29T12:09:23;40.10;49.70
19552;DHT22;9921;47.186;9.778;2023-04-29T12:11:50;39.80;48.30
19552;DHT22;9921;47.186;9.778;2023-04-29T12:14:17;38.90;48.30
19552;DHT22;9921;47.186;9.778;2023-04-29T12:16:44;38.20;50.50
19552;DHT22;9921;47.186;9.778;2023-04-29T12:19:12;38.30;50.00
19552;DHT22;9921;47.186;9.778;2023-04-29T12:21:48;39.10;48.90
19552;DHT22;9921;47.186;9.778;2023-04-29T12:24:16;39.80;49.20
19552;DHT22;9921;47.186;9.778;2023-04-29T12:26:44;39.60;49.70
19552;DHT22;9921;47.186;9.778;2023-04-29T12:29:12;39.10;48.30
19552;DHT22;9921;47.186;9.778;2023-04-29T12:31:39;38.80;49.20
19552;DHT22;9921;47.186;9.778;2023-04-29T12:34:08;38.50;49.60
19552;DHT22;9921;47.186;9.778;2023-04-29T12:36:34;38.20;49.40
19552;DHT22;9921;47.186;9.778;2023-04-29T12:39:05;38.20;48.90
19552;DHT22;9921;47.186;9.778;2023-04-29T12:41:38;37.60;49.50
19552;DHT22;9921;47.186;9.778;2023-04-29T12:44:06;36.80;51.50
19552;DHT22;9921;47.186;9.778;2023-04-29T12:46:35;35.90;51.10
19552;DHT22;9921;47.186;9.778;2023-04-29T12:49:03;34.50;53.40
19552;DHT22;9921;47.186;9.778;2023-04-29T12:51:30;34.10;54.70
19552;DHT22;9921;47.186;9.778;2023-04-29T12:53:58;33.40;57.50
19552;DHT22;9921;47.186;9.778;2023-04-29T12:56:26;32.40;56.40
19552;DHT22;9921;47.186;9.778;2023-04-29T12:58:53;31.80;56.20
19552;DHT22;9921;47.186;9.778;2023-04-29T13:01:20;31.30;55.60
19552;DHT22;9921;47.186;9.778;2023-04-29T13:03:47;30.70;56.50
19552;DHT22;9921;47.186;9.778;2023-04-29T13:06:16;30.10;59.40
19552;DHT22;9921;47.186;9.778;2023-04-29T13:08:43;29.60;58.40
19552;DHT22;9921;47.186;9.778;2023-04-29T13:11:10;29.00;61.70
19552;DHT22;9921;47.186;9.778;2023-04-29T13:13:39;28.60;61.50
19552;DHT22;9921;47.186;9.778;2023-04-29T13:16:06;28.30;62.60
19552;DHT22;9921;47.186;9.778;2023-04-29T13:18:33;28.00;64.50
19552;DHT22;9921;47.186;9.778;2023-04-29T13:21:01;27.70;65.20
19552;DHT22;9921;47.186;9.778;2023-04-29T13:23:28;27.40;64.90
19552;DHT22;9921;47.186;9.778;2023-04-29T13:25:55;26.90;65.90
19552;DHT22;9921;47.186;9.778;2023-04-29T13:28:22;26.60;68.50
19552;DHT22;9921;47.186;9.778;2023-04-29T13:30:50;26.30;67.70
19552;DHT22;9921;47.186;9.778;2023-04-29T13:33:17;26.00;68.50
19552;DHT22;9921;47.186;9.778;2023-04-29T13:35:44;25.70;70.00
19552;DHT22;9921;47.186;9.778;2023-04-29T13:38:12;25.50;69.70
19552;DHT22;9921;47.186;9.778;2023-04-29T13:40:38;25.30;70.30
19552;DHT22;9921;47.186;9.778;2023-04-29T13:43:05;25.10;71.30
19552;DHT22;9921;47.186;9.778;2023-04-29T13:45:32;25.00;70.50
19552;DHT22;9921;47.186;9.778;2023-04-29T13:48:01;24.90;72.70
19552;DHT22;9921;47.186;9.778;2023-04-29T13:50:28;24.80;75.30
19552;DHT22;9921;47.186;9.778;2023-04-29T13:52:55;24.80;73.10
19552;DHT22;9921;47.186;9.778;2023-04-29T13:55:22;24.90;74.40
19552;DHT22;9921;47.186;9.778;2023-04-29T13:57:49;25.00;72.30
19552;DHT22;9921;47.186;9.778;2023-04-29T14:00:16;25.00;72.60
19552;DHT22;9921;47.186;9.778;2023-04-29T14:02:43;24.90;73.70
19552;DHT22;9921;47.186;9.778;2023-04-29T14:05:11;24.90;72.50
19552;DHT22;9921;47.186;9.778;2023-04-29T14:07:38;25.00;73.60
19552;DHT22;9921;47.186;9.778;2023-04-29T14:10:05;25.00;71.20
19552;DHT22;9921;47.186;9.778;2023-04-29T14:12:33;25.10;72.10
19552;DHT22;9921;47.186;9.778;2023-04-29T14:14:59;25.20;73.30
19552;DHT22;9921;47.186;9.778;2023-04-29T14:17:26;25.30;71.00
19552;DHT22;9921;47.186;9.778;2023-04-29T14:19:53;25.20;73.00
19552;DHT22;9921;47.186;9.778;2023-04-29T14:22:21;25.10;72.70
19552;DHT22;9921;47.186;9.778;2023-04-29T14:24:48;25.00;75.10
19552;DHT22;9921;47.186;9.778;2023-04-29T14:27:15;24.90;74.80
19552;DHT22;9921;47.186;9.778;2023-04-29T14:29:42;24.80;72.00
19552;DHT22;9921;47.186;9.778;2023-04-29T14:32:09;24.60;73.00
19552;DHT22;9921;47.186;9.778;2023-04-29T14:34:36;24.40;74.20
19552;DHT22;9921;47.186;9.778;2023-04-29T14:37:03;24.30;73.70
19552;DHT22;9921;47.186;9.778;2023-04-29T14:39:31;24.30;74.20
19552;DHT22;9921;47.186;9.778;2023-04-29T14:41:58;24.30;76.10
19552;DHT22;9921;47.186;9.778;2023-04-29T14:44:25;24.20;75.40
19552;DHT22;9921;47.186;9.778;2023-04-29T14:46:51;24.20;75.70
19552;DHT22;9921;47.186;9.778;2023-04-29T14:49:18;24.10;75.00
19552;DHT22;9921;47.186;9.778;2023-04-29T14:51:45;24.00;77.30
19552;DHT22;9921;47.186;9.778;2023-04-29T14:54:12;23.90;76.40
19552;DHT22;9921;47.186;9.778;2023-04-29T14:56:40;23.90;77.60
19552;DHT22;9921;47.186;9.778;2023-04-29T14:59:07;23.80;76.30
19552;DHT22;9921;47.186;9.778;2023-04-29T15:01:34;23.50;76.80
19552;DHT22;9921;47.186;9.778;2023-04-29T15:04:01;23.40;76.30
19552;DHT22;9921;47.186;9.778;2023-04-29T15:06:29;23.20;78.30
19552;DHT22;9921;47.186;9.778;2023-04-29T15:08:56;23.00;79.70
19552;DHT22;9921;47.186;9.778;2023-04-29T15:11:23;22.80;80.10
19552;DHT22;9921;47.186;9.778;2023-04-29T15:13:51;22.60;80.40
19552;DHT22;9921;47.186;9.778;2023-04-29T15:16:18;22.50;82.10
19552;DHT22;9921;47.186;9.778;2023-04-29T15:18:45;22.40;81.40
19552;DHT22;9921;47.186;9.778;2023-04-29T15:21:12;22.30;81.70
19552;DHT22;9921;47.186;9.778;2023-04-29T15:23:39;22.10;82.20
19552;DHT22;9921;47.186;9.778;2023-04-29T15:26:06;22.00;82.90
19552;DHT22;9921;47.186;9.778;2023-04-29T15:28:33;21.70;85.90
19552;DHT22;9921;47.186;9.778;2023-04-29T15:31:01;21.30;84.40
19552;DHT22;9921;47.186;9.778;2023-04-29T15:33:29;20.80;82.40
19552;DHT22;9921;47.186;9.778;2023-04-29T15:35:57;20.30;83.70
19552;DHT22;9921;47.186;9.778;2023-04-29T15:38:24;19.90;85.70
19552;DHT22;9921;47.186;9.778;2023-04-29T15:40:51;19.60;89.60
19552;DHT22;9921;47.186;9.778;2023-04-29T15:43:25;19.30;90.80
19552;DHT22;9921;47.186;9.778;2023-04-29T15:45:51;19.10;91.60
19552;DHT22;9921;47.186;9.778;2023-04-29T15:48:20;19.00;92.90
19552;DHT22;9921;47.186;9.778;2023-04-29T15:50:46;18.90;99.90